createdAt,value
2017-04-11T00:00:58.311Z,5.50
2017-04-11T00:02:04.213Z,5.50
2017-04-11T00:03:10.431Z,5.60
2017-04-11T00:04:16.509Z,5.60
2017-04-11T00:05:22.597Z,5.60
2017-04-11T00:06:28.714Z,5.50
2017-04-11T00:07:35.763Z,5.50
2017-04-11T00:08:41.905Z,5.50
2017-04-11T00:09:48.034Z,5.50
2017-04-11T00:10:54.948Z,5.50
2017-04-11T00:12:01.114Z,5.50
2017-04-11T00:13:07.217Z,5.50
2017-04-11T00:14:13.296Z,5.50
2017-04-11T00:15:19.277Z,5.50
2017-04-11T00:16:25.447Z,5.50
2017-04-11T00:17:31.733Z,5.50
2017-04-11T00:18:38.585Z,5.50
2017-04-11T00:19:44.494Z,5.50
2017-04-11T00:20:50.832Z,5.60
2017-04-11T00:21:56.995Z,5.60
2017-04-11T00:23:03.049Z,5.60
2017-04-11T00:24:09.112Z,5.70
2017-04-11T00:25:16.174Z,5.60
2017-04-11T00:26:22.281Z,5.60
2017-04-11T00:27:28.249Z,5.60
2017-04-11T00:28:34.590Z,5.60
2017-04-11T00:29:40.815Z,5.60
2017-04-11T00:30:46.841Z,5.70
2017-04-11T00:31:53.533Z,5.70
2017-04-11T00:32:59.774Z,5.70
2017-04-11T00:34:06.002Z,5.60
2017-04-11T00:35:11.986Z,5.60
2017-04-11T00:36:18.105Z,5.60
2017-04-11T00:37:24.161Z,5.60
2017-04-11T00:38:30.101Z,5.60
2017-04-11T00:39:37.446Z,5.50
2017-04-11T00:40:43.473Z,5.50
2017-04-11T00:41:49.535Z,5.50
2017-04-11T00:42:55.537Z,5.50
2017-04-11T00:44:01.555Z,5.40
2017-04-11T00:45:07.878Z,5.40
2017-04-11T00:46:13.882Z,5.30
2017-04-11T00:47:19.858Z,5.30
2017-04-11T00:48:25.861Z,5.30
2017-04-11T00:49:32.565Z,5.30
2017-04-11T00:50:38.764Z,5.30
2017-04-11T00:51:44.833Z,5.20
2017-04-11T00:52:50.895Z,5.20
2017-04-11T00:53:56.933Z,5.20
2017-04-11T00:55:03.144Z,5.20
2017-04-11T00:56:09.261Z,5.20
2017-04-11T00:57:15.297Z,5.10
2017-04-11T00:58:21.383Z,5.10
2017-04-11T00:59:27.458Z,5.10
2017-04-11T01:00:33.539Z,5.10
2017-04-11T01:01:39.751Z,5.20
2017-04-11T01:02:45.887Z,5.20
2017-04-11T01:03:51.860Z,5.10
2017-04-11T01:04:57.923Z,5.00
2017-04-11T01:06:03.993Z,5.00
2017-04-11T01:07:10.401Z,5.00
2017-04-11T01:08:16.498Z,5.00
2017-04-11T01:09:22.684Z,5.00
2017-04-11T01:10:28.779Z,5.00
2017-04-11T01:11:34.891Z,5.10
2017-04-11T01:12:41.222Z,5.10
2017-04-11T01:13:47.102Z,5.10
2017-04-11T01:14:53.187Z,5.10
2017-04-11T01:15:59.326Z,5.10
2017-04-11T01:17:06.134Z,5.10
2017-04-11T01:18:12.318Z,5.10
2017-04-11T01:19:19.029Z,5.10
2017-04-11T01:20:24.931Z,5.20
2017-04-11T01:21:30.976Z,5.20
2017-04-11T01:22:37.124Z,5.20
2017-04-11T01:23:43.176Z,5.20
2017-04-11T01:24:49.364Z,5.20
2017-04-11T01:25:55.346Z,5.20
2017-04-11T01:27:01.354Z,5.20
2017-04-11T01:28:07.470Z,5.20
2017-04-11T01:29:13.527Z,5.20
2017-04-11T01:30:19.542Z,5.20
2017-04-11T01:31:25.510Z,5.20
2017-04-11T01:32:31.605Z,5.30
2017-04-11T01:33:37.761Z,5.30
2017-04-11T01:34:43.790Z,5.30
2017-04-11T01:35:49.841Z,5.30
2017-04-11T01:36:56.809Z,5.20
2017-04-11T01:38:03.097Z,5.30
2017-04-11T01:39:09.245Z,5.30
2017-04-11T01:40:15.243Z,5.30
2017-04-11T01:41:21.257Z,5.30
2017-04-11T01:42:27.434Z,5.20
2017-04-11T01:43:33.563Z,5.20
2017-04-11T01:44:39.658Z,5.20
2017-04-11T01:45:45.771Z,5.10
2017-04-11T01:46:51.935Z,5.10
2017-04-11T01:47:57.930Z,5.10
2017-04-11T01:49:04.135Z,5.10
2017-04-11T01:50:10.086Z,5.10
2017-04-11T01:51:16.165Z,5.10
2017-04-11T01:52:22.119Z,5.10
2017-04-11T01:53:28.179Z,5.10
2017-04-11T01:54:34.119Z,5.10
2017-04-11T01:55:40.310Z,5.10
2017-04-11T01:56:47.253Z,5.10
2017-04-11T01:57:53.300Z,5.10
2017-04-11T01:58:59.271Z,5.10
2017-04-11T02:00:05.321Z,5.20
2017-04-11T02:01:11.330Z,5.20
2017-04-11T02:02:17.588Z,5.20
2017-04-11T02:03:23.606Z,5.20
2017-04-11T02:05:35.747Z,5.20
2017-04-11T02:06:41.910Z,5.20
2017-04-11T02:07:48.010Z,5.30
2017-04-11T02:08:53.990Z,5.20
2017-04-11T02:10:00.103Z,5.20
2017-04-11T02:11:06.154Z,5.30
2017-04-11T02:12:12.169Z,5.20
2017-04-11T02:13:18.271Z,5.20
2017-04-11T02:14:24.405Z,5.20
2017-04-11T02:15:31.081Z,5.30
2017-04-11T02:16:37.109Z,5.30
2017-04-11T02:17:43.108Z,5.40
2017-04-11T02:18:49.433Z,5.40
2017-04-11T02:19:55.510Z,5.40
2017-04-11T02:21:01.600Z,5.50
2017-04-11T02:22:07.773Z,5.50
2017-04-11T02:23:13.867Z,5.50
2017-04-11T02:24:20.058Z,5.50
2017-04-11T02:25:26.093Z,5.60
2017-04-11T02:26:32.065Z,5.60
2017-04-11T02:27:38.114Z,5.50
2017-04-11T02:28:44.197Z,5.60
2017-04-11T02:29:50.505Z,5.50
2017-04-11T02:30:56.410Z,5.60
2017-04-11T02:32:03.131Z,5.60
2017-04-11T02:33:09.151Z,5.50
2017-04-11T02:34:15.919Z,5.60
2017-04-11T02:35:22.009Z,5.50
2017-04-11T02:36:27.972Z,5.50
2017-04-11T02:37:33.977Z,5.50
2017-04-11T02:38:40.777Z,5.50
2017-04-11T02:39:46.921Z,5.50
2017-04-11T02:40:53.082Z,5.50
2017-04-11T02:41:59.083Z,5.50
2017-04-11T02:43:05.223Z,5.50
2017-04-11T02:44:11.188Z,5.40
2017-04-11T02:45:18.004Z,5.30
2017-04-11T02:46:24.185Z,5.30
2017-04-11T02:47:30.059Z,5.30
2017-04-11T02:48:36.047Z,5.30
2017-04-11T02:49:42.090Z,5.30
2017-04-11T02:50:48.267Z,5.20
2017-04-11T02:51:54.553Z,5.20
2017-04-11T02:53:00.679Z,5.10
2017-04-11T02:54:06.551Z,5.10
2017-04-11T02:55:12.601Z,5.10
2017-04-11T02:56:18.894Z,5.00
2017-04-11T02:57:24.913Z,5.00
2017-04-11T02:58:30.976Z,5.00
2017-04-11T02:59:36.933Z,5.00
2017-04-11T03:00:42.860Z,5.00
2017-04-11T03:01:49.011Z,4.90
2017-04-11T03:02:56.393Z,4.90
2017-04-11T03:04:02.342Z,4.90
2017-04-11T03:05:08.451Z,4.90
2017-04-11T03:06:14.410Z,4.90
2017-04-11T03:07:20.473Z,4.90
2017-04-11T03:08:26.497Z,4.90
2017-04-11T03:09:32.429Z,4.80
2017-04-11T03:10:38.572Z,4.80
2017-04-11T03:11:44.676Z,4.80
2017-04-11T03:12:50.697Z,4.80
2017-04-11T03:13:57.491Z,4.80
2017-04-11T03:15:03.502Z,4.70
2017-04-11T03:16:09.482Z,4.70
2017-04-11T03:17:15.444Z,4.70
2017-04-11T03:18:21.488Z,4.70
2017-04-11T03:19:27.458Z,4.70
2017-04-11T03:20:33.462Z,4.70
2017-04-11T03:21:39.389Z,4.70
2017-04-11T03:22:45.467Z,4.70
2017-04-11T03:23:51.558Z,4.70
2017-04-11T03:24:57.816Z,4.70
2017-04-11T03:26:04.264Z,4.70
2017-04-11T03:27:10.326Z,4.70
2017-04-11T03:28:16.475Z,4.70
2017-04-11T03:29:22.783Z,4.60
2017-04-11T03:30:28.887Z,4.60
2017-04-11T03:31:35.009Z,4.60
2017-04-11T03:32:41.054Z,4.60
2017-04-11T03:33:47.140Z,4.60
2017-04-11T03:34:53.159Z,4.60
2017-04-11T03:35:59.227Z,4.60
2017-04-11T03:37:05.185Z,4.60
2017-04-11T03:38:11.215Z,4.60
2017-04-11T03:39:17.216Z,4.50
2017-04-11T03:40:23.285Z,4.50
2017-04-11T03:41:29.565Z,4.60
2017-04-11T03:42:35.673Z,4.60
2017-04-11T03:43:41.843Z,4.50
2017-04-11T03:44:47.730Z,4.50
2017-04-11T03:45:53.846Z,4.50
2017-04-11T03:46:59.952Z,4.50
2017-04-11T03:48:05.952Z,4.50
2017-04-11T03:49:12.018Z,4.50
2017-04-11T03:50:18.028Z,4.50
2017-04-11T03:51:24.067Z,4.50
2017-04-11T03:52:30.317Z,4.50
2017-04-11T03:53:36.261Z,4.50
2017-04-11T03:54:42.390Z,4.50
2017-04-11T03:55:49.226Z,4.50
2017-04-11T03:56:55.334Z,4.60
2017-04-11T03:58:01.561Z,4.60
2017-04-11T03:59:07.537Z,4.60
2017-04-11T04:00:14.318Z,4.60
2017-04-11T04:01:20.271Z,4.60
2017-04-11T04:02:26.493Z,4.60
2017-04-11T04:03:32.786Z,4.60
2017-04-11T04:04:38.821Z,4.70
2017-04-11T04:05:44.813Z,4.80
2017-04-11T04:06:50.981Z,4.80
2017-04-11T04:07:56.977Z,4.80
2017-04-11T04:09:03.031Z,4.70
2017-04-11T04:10:09.066Z,4.70
2017-04-11T04:11:15.181Z,4.60
2017-04-11T04:12:21.292Z,4.60
2017-04-11T04:13:27.545Z,4.60
2017-04-11T04:14:33.565Z,4.60
2017-04-11T04:15:39.745Z,4.60
2017-04-11T04:16:47.827Z,4.60
2017-04-11T04:17:53.901Z,4.70
2017-04-11T04:18:59.790Z,4.70
2017-04-11T04:20:05.837Z,4.60
2017-04-11T04:21:11.873Z,4.60
2017-04-11T04:22:17.971Z,4.60
2017-04-11T04:23:24.088Z,4.70
2017-04-11T04:24:30.170Z,4.70
2017-04-11T04:25:36.373Z,4.70
2017-04-11T04:26:42.497Z,4.60
2017-04-11T04:27:48.549Z,4.60
2017-04-11T04:28:54.725Z,4.60
2017-04-11T04:30:00.831Z,4.60
2017-04-11T04:31:07.178Z,4.70
2017-04-11T04:32:13.183Z,4.70
2017-04-11T04:33:19.210Z,4.70
2017-04-11T04:34:25.399Z,4.60
2017-04-11T04:35:31.379Z,4.60
2017-04-11T04:36:37.732Z,4.60
2017-04-11T04:37:43.853Z,4.60
2017-04-11T04:38:49.936Z,4.60
2017-04-11T04:39:56.034Z,4.60
2017-04-11T04:41:02.002Z,4.60
2017-04-11T04:42:08.521Z,4.60
2017-04-11T04:43:14.491Z,4.60
2017-04-11T04:44:20.448Z,4.60
2017-04-11T04:45:26.477Z,4.60
2017-04-11T04:46:32.452Z,4.60
2017-04-11T04:47:38.637Z,4.60
2017-04-11T04:48:44.621Z,4.60
2017-04-11T04:49:50.732Z,4.60
2017-04-11T04:50:57.478Z,4.60
2017-04-11T04:52:03.648Z,4.60
2017-04-11T04:53:09.729Z,4.60
2017-04-11T04:54:16.531Z,4.60
2017-04-11T04:55:29.354Z,4.60
2017-04-11T04:56:35.397Z,4.60
2017-04-11T04:57:41.486Z,4.60
2017-04-11T04:58:47.793Z,4.70
2017-04-11T04:59:53.735Z,4.60
2017-04-11T05:00:59.815Z,4.70
2017-04-11T05:02:05.779Z,4.70
2017-04-11T05:03:15.424Z,4.70
2017-04-11T05:04:21.524Z,4.70
2017-04-11T05:05:28.491Z,4.70
2017-04-11T05:06:34.504Z,4.60
2017-04-11T05:07:40.693Z,4.60
2017-04-11T05:08:46.709Z,4.70
2017-04-11T05:09:52.723Z,4.70
2017-04-11T05:10:58.753Z,4.70
2017-04-11T05:12:04.861Z,4.70
2017-04-11T05:13:10.810Z,4.80
2017-04-11T05:14:17.599Z,4.80
2017-04-11T05:15:23.602Z,4.80
2017-04-11T05:16:29.572Z,4.90
2017-04-11T05:17:35.604Z,4.80
2017-04-11T05:18:41.607Z,4.80
2017-04-11T05:19:47.706Z,4.80
2017-04-11T05:20:53.868Z,4.70
2017-04-11T05:22:00.005Z,4.70
2017-04-11T05:23:06.043Z,4.70
2017-04-11T05:24:12.069Z,4.80
2017-04-11T05:25:18.141Z,4.70
2017-04-11T05:26:24.185Z,4.80
2017-04-11T05:27:30.233Z,4.80
2017-04-11T05:28:36.455Z,4.80
2017-04-11T05:29:42.659Z,4.80
2017-04-11T05:30:48.780Z,4.90
2017-04-11T05:31:57.175Z,4.80
2017-04-11T05:33:03.177Z,4.80
2017-04-11T05:34:09.419Z,4.80
2017-04-11T05:35:15.411Z,4.90
2017-04-11T05:36:21.778Z,4.80
2017-04-11T05:37:27.666Z,4.80
2017-04-11T05:38:33.892Z,4.80
2017-04-11T05:39:39.834Z,4.60
2017-04-11T05:40:45.875Z,4.90
2017-04-11T05:41:51.949Z,4.90
2017-04-11T05:42:58.068Z,4.90
2017-04-11T05:44:04.778Z,4.90
2017-04-11T05:45:10.978Z,5.10
2017-04-11T05:46:23.982Z,5.20
2017-04-11T05:47:29.948Z,5.20
2017-04-11T05:48:36.162Z,5.20
2017-04-11T05:49:42.386Z,5.20
2017-04-11T05:50:48.655Z,5.20
2017-04-11T05:51:56.325Z,5.10
2017-04-11T05:53:02.977Z,5.20
2017-04-11T05:54:09.288Z,5.30
2017-04-11T05:55:15.508Z,5.30
2017-04-11T05:56:21.672Z,5.30
2017-04-11T05:57:27.638Z,5.30
2017-04-11T05:58:34.638Z,5.30
2017-04-11T05:59:41.653Z,5.40
2017-04-11T06:00:47.816Z,5.50
2017-04-11T06:01:53.878Z,5.50
2017-04-11T06:02:59.952Z,5.40
2017-04-11T06:04:07.003Z,5.50
2017-04-11T06:05:12.974Z,5.40
2017-04-11T06:06:19.828Z,5.40
2017-04-11T06:07:25.934Z,5.40
2017-04-11T06:08:32.047Z,5.40
2017-04-11T06:09:39.026Z,5.50
2017-04-11T06:10:45.874Z,5.50
2017-04-11T06:11:51.851Z,5.50
2017-04-11T06:12:58.022Z,5.60
2017-04-11T06:14:04.020Z,5.60
2017-04-11T06:15:10.618Z,5.60
2017-04-11T06:16:17.245Z,5.50
2017-04-11T06:17:23.332Z,5.50
2017-04-11T06:18:29.493Z,5.40
2017-04-11T06:19:35.812Z,5.40
2017-04-11T06:20:41.729Z,5.30
2017-04-11T06:21:49.247Z,5.10
2017-04-11T06:22:55.243Z,5.00
2017-04-11T06:24:01.331Z,5.00
2017-04-11T06:25:07.276Z,5.00
2017-04-11T06:26:14.161Z,4.90
2017-04-11T06:27:20.409Z,4.90
2017-04-11T06:28:26.548Z,4.90
2017-04-11T06:29:32.598Z,5.40
2017-04-11T06:30:38.642Z,5.80
2017-04-11T06:31:44.644Z,6.20
2017-04-11T06:32:50.685Z,6.60
2017-04-11T06:33:56.675Z,6.30
2017-04-11T06:35:02.765Z,6.70
2017-04-11T06:36:08.971Z,6.80
2017-04-11T06:37:14.970Z,6.60
2017-04-11T06:38:20.970Z,6.50
2017-04-11T06:39:27.121Z,6.30
2017-04-11T06:40:33.237Z,6.20
2017-04-11T06:41:39.452Z,5.80
2017-04-11T06:42:45.551Z,5.70
2017-04-11T06:43:52.079Z,5.70
2017-04-11T06:44:58.914Z,5.70
2017-04-11T06:46:04.928Z,5.70
2017-04-11T06:47:17.542Z,5.80
2017-04-11T06:48:23.681Z,5.80
2017-04-11T06:49:30.852Z,5.70
2017-04-11T06:50:36.927Z,5.70
2017-04-11T06:51:43.367Z,5.70
2017-04-11T06:52:50.563Z,5.70
2017-04-11T06:53:57.108Z,5.70
2017-04-11T06:55:03.805Z,5.60
2017-04-11T06:56:10.317Z,5.70
2017-04-11T06:57:16.352Z,5.70
2017-04-11T06:58:22.451Z,5.80
2017-04-11T06:59:28.687Z,5.90
2017-04-11T07:00:34.637Z,5.90
2017-04-11T07:01:40.812Z,5.90
2017-04-11T07:02:55.395Z,5.90
2017-04-11T07:04:03.007Z,5.80
2017-04-11T07:05:09.094Z,5.90
2017-04-11T07:06:16.242Z,5.90
2017-04-11T07:07:22.247Z,5.90
2017-04-11T07:08:28.499Z,5.90
2017-04-11T07:09:34.680Z,5.80
2017-04-11T07:11:47.822Z,6.10
2017-04-11T07:12:53.758Z,6.20
2017-04-11T07:13:59.806Z,6.30
2017-04-11T07:15:05.749Z,6.20
2017-04-11T07:16:11.775Z,6.30
2017-04-11T07:17:17.813Z,6.30
2017-04-11T07:18:23.771Z,6.30
2017-04-11T07:19:29.676Z,6.40
2017-04-11T07:20:35.690Z,6.60
2017-04-11T07:21:41.625Z,6.50
2017-04-11T07:22:47.925Z,6.70
2017-04-11T07:23:53.909Z,6.70
2017-04-11T07:25:01.803Z,6.70
2017-04-11T07:26:07.757Z,6.60
2017-04-11T07:27:13.745Z,6.70
2017-04-11T07:28:19.749Z,6.60
2017-04-11T07:29:25.826Z,6.80
2017-04-11T07:30:31.850Z,6.70
2017-04-11T07:31:37.928Z,6.70
2017-04-11T07:32:43.933Z,6.80
2017-04-11T07:33:50.161Z,6.80
2017-04-11T07:34:56.297Z,6.60
2017-04-11T07:36:02.345Z,6.70
2017-04-11T07:37:08.249Z,6.70
2017-04-11T07:38:15.317Z,6.70
2017-04-11T07:39:21.517Z,6.60
2017-04-11T07:40:27.805Z,6.60
2017-04-11T07:41:33.806Z,6.50
2017-04-11T07:42:40.033Z,6.50
2017-04-11T07:43:46.070Z,6.60
2017-04-11T07:44:52.123Z,6.50
2017-04-11T07:45:58.251Z,6.50
2017-04-11T07:47:04.231Z,6.60
2017-04-11T07:48:10.273Z,6.40
2017-04-11T07:49:16.338Z,6.50
2017-04-11T07:50:22.460Z,6.60
2017-04-11T07:51:28.363Z,6.60
2017-04-11T07:52:35.257Z,6.60
2017-04-11T07:53:41.106Z,6.60
2017-04-11T07:54:47.134Z,6.40
2017-04-11T07:55:53.305Z,6.50
2017-04-11T07:56:59.189Z,6.50
2017-04-11T07:58:05.277Z,6.70
2017-04-11T07:59:11.246Z,6.80
2017-04-11T08:00:17.395Z,6.70
2017-04-11T08:01:23.348Z,6.70
2017-04-11T08:02:30.061Z,6.70
2017-04-11T08:03:35.998Z,6.80
2017-04-11T08:04:42.086Z,6.60
2017-04-11T08:05:48.183Z,6.80
2017-04-11T08:06:54.308Z,6.80
2017-04-11T08:08:00.381Z,7.20
2017-04-11T08:09:06.524Z,7.40
2017-04-11T08:10:12.769Z,7.20
2017-04-11T08:11:18.752Z,7.30
2017-04-11T08:12:24.823Z,7.60
2017-04-11T08:13:31.015Z,7.60
2017-04-11T08:14:37.082Z,7.70
2017-04-11T08:15:42.941Z,7.90
2017-04-11T08:16:49.079Z,7.90
2017-04-11T08:17:55.653Z,7.90
2017-04-11T08:19:01.832Z,8.10
2017-04-11T08:20:07.849Z,7.90
2017-04-11T08:21:13.897Z,7.70
2017-04-11T08:22:19.965Z,7.60
2017-04-11T08:23:25.989Z,7.50
2017-04-11T08:24:31.877Z,7.50
2017-04-11T08:25:37.885Z,7.60
2017-04-11T08:26:43.934Z,7.90
2017-04-11T08:27:49.982Z,8.00
2017-04-11T08:28:56.172Z,8.00
2017-04-11T08:30:02.948Z,8.00
2017-04-11T08:31:09.220Z,8.10
2017-04-11T08:32:16.082Z,8.10
2017-04-11T08:33:22.763Z,7.90
2017-04-11T08:34:28.707Z,8.20
2017-04-11T08:35:34.723Z,8.20
2017-04-11T08:36:40.778Z,8.00
2017-04-11T08:37:46.884Z,8.10
2017-04-11T08:38:52.958Z,8.20
2017-04-11T08:39:58.913Z,8.40
2017-04-11T08:41:04.873Z,8.20
2017-04-11T08:42:10.856Z,7.90
2017-04-11T08:43:16.806Z,8.10
2017-04-11T08:44:22.845Z,8.20
2017-04-11T08:45:29.002Z,8.30
2017-04-11T08:46:34.917Z,8.60
2017-04-11T08:47:40.874Z,8.40
2017-04-11T08:48:46.835Z,8.40
2017-04-11T08:49:52.911Z,8.70
2017-04-11T08:50:58.885Z,8.50
2017-04-11T08:52:05.085Z,8.60
2017-04-11T08:53:11.317Z,8.70
2017-04-11T08:54:17.305Z,8.40
2017-04-11T08:55:26.550Z,8.30
2017-04-11T08:56:41.887Z,8.10
2017-04-11T08:57:52.363Z,8.60
2017-04-11T08:59:04.976Z,8.80
2017-04-11T09:00:13.444Z,9.00
2017-04-11T09:01:19.478Z,9.00
2017-04-11T09:02:25.723Z,9.40
2017-04-11T09:03:31.921Z,9.30
2017-04-11T09:04:38.013Z,9.00
2017-04-11T09:05:44.059Z,9.10
2017-04-11T09:06:50.074Z,9.00
2017-04-11T09:07:56.319Z,8.70
2017-04-11T09:09:02.347Z,8.80
2017-04-11T09:10:08.552Z,8.60
2017-04-11T09:11:14.681Z,8.50
2017-04-11T09:12:20.697Z,9.10
2017-04-11T09:13:26.830Z,9.10
2017-04-11T09:14:32.876Z,9.20
2017-04-11T09:15:38.921Z,9.50
2017-04-11T09:16:45.538Z,9.80
2017-04-11T09:17:51.422Z,9.50
2017-04-11T09:18:58.130Z,9.70
2017-04-11T09:20:04.243Z,10.00
2017-04-11T09:21:11.174Z,9.70
2017-04-11T09:22:17.229Z,9.60
2017-04-11T09:23:23.202Z,9.30
2017-04-11T09:24:29.267Z,8.80
2017-04-11T09:25:35.381Z,8.80
2017-04-11T09:26:41.465Z,8.40
2017-04-11T09:27:47.391Z,8.40
2017-04-11T09:28:53.442Z,8.30
2017-04-11T09:29:59.595Z,8.40
2017-04-11T09:31:05.534Z,8.40
2017-04-11T09:32:11.606Z,8.40
2017-04-11T09:33:17.716Z,8.60
2017-04-11T09:34:23.651Z,8.50
2017-04-11T09:35:30.604Z,8.60
2017-04-11T09:36:36.618Z,8.80
2017-04-11T09:37:42.593Z,8.90
2017-04-11T09:38:48.670Z,8.60
2017-04-11T09:39:54.829Z,8.70
2017-04-11T09:41:01.073Z,8.70
2017-04-11T09:42:06.977Z,8.50
2017-04-11T09:43:13.049Z,8.50
2017-04-11T09:44:19.909Z,8.50
2017-04-11T09:45:25.906Z,8.50
2017-04-11T09:46:32.658Z,8.10
2017-04-11T09:47:39.028Z,8.10
2017-04-11T09:48:46.502Z,8.40
2017-04-11T09:49:53.735Z,8.40
2017-04-11T09:50:59.937Z,8.70
2017-04-11T09:52:06.063Z,8.70
2017-04-11T09:53:12.224Z,8.80
2017-04-11T09:54:18.419Z,9.00
2017-04-11T09:55:24.693Z,9.20
2017-04-11T09:56:31.678Z,9.50
2017-04-11T09:57:37.885Z,9.70
2017-04-11T09:58:43.829Z,10.10
2017-04-11T09:59:49.944Z,9.80
2017-04-11T10:00:55.883Z,9.60
2017-04-11T10:02:01.867Z,9.80
2017-04-11T10:03:07.963Z,9.90
2017-04-11T10:04:13.892Z,10.10
2017-04-11T10:05:20.007Z,10.10
2017-04-11T10:06:26.068Z,10.00
2017-04-11T10:07:32.293Z,9.80
2017-04-11T10:08:38.392Z,10.10
2017-04-11T10:09:44.417Z,10.10
2017-04-11T10:10:50.607Z,9.80
2017-04-11T10:11:56.565Z,9.40
2017-04-11T10:13:02.586Z,9.40
2017-04-11T10:14:08.712Z,9.30
2017-04-11T10:15:14.836Z,9.40
2017-04-11T10:16:20.788Z,9.40
2017-04-11T10:17:27.513Z,9.40
2017-04-11T10:18:33.517Z,9.60
2017-04-11T10:19:39.634Z,10.20
2017-04-11T10:20:45.625Z,9.70
2017-04-11T10:21:51.738Z,9.60
2017-04-11T10:22:57.998Z,9.60
2017-04-11T10:24:04.181Z,9.80
2017-04-11T10:26:56.319Z,9.20
2017-04-11T10:28:03.087Z,9.20
2017-04-11T10:30:44.496Z,9.40
2017-04-11T10:31:50.448Z,9.40
2017-04-11T10:32:56.385Z,9.50
2017-04-11T10:34:02.565Z,9.40
2017-04-11T10:35:08.599Z,10.00
2017-04-11T10:36:14.700Z,10.20
2017-04-11T10:37:20.674Z,10.30
2017-04-11T10:38:26.589Z,10.40
2017-04-11T10:39:32.657Z,10.20
2017-04-11T10:40:38.940Z,10.50
2017-04-11T10:41:44.927Z,10.20
2017-04-11T10:42:51.990Z,10.00
2017-04-11T10:43:58.123Z,9.80
2017-04-11T10:45:04.096Z,9.70
2017-04-11T10:46:10.121Z,9.50
2017-04-11T10:47:16.252Z,9.40
2017-04-11T10:48:22.442Z,9.40
2017-04-11T10:49:28.520Z,9.60
2017-04-11T10:50:34.569Z,9.80
2017-04-11T10:51:40.649Z,9.80
2017-04-11T10:52:47.361Z,9.60
2017-04-11T10:53:53.321Z,9.40
2017-04-11T10:54:59.452Z,9.50
2017-04-11T10:56:05.456Z,9.80
2017-04-11T10:57:11.489Z,10.20
2017-04-11T10:58:17.734Z,9.90
2017-04-11T10:59:23.648Z,9.50
2017-04-11T11:00:29.695Z,9.40
2017-04-11T11:01:35.747Z,9.30
2017-04-11T11:02:41.765Z,9.20
2017-04-11T11:03:47.800Z,9.20
2017-04-11T11:04:54.425Z,9.00
2017-04-11T11:06:00.552Z,9.00
2017-04-11T11:07:06.464Z,9.20
2017-04-11T11:08:12.469Z,9.10
2017-04-11T11:09:18.422Z,9.30
2017-04-11T11:10:25.237Z,9.50
2017-04-11T11:11:31.279Z,9.30
2017-04-11T11:12:37.304Z,9.10
2017-04-11T11:13:43.272Z,9.00
2017-04-11T11:14:49.259Z,9.10
2017-04-11T11:15:55.260Z,9.10
2017-04-11T11:17:01.261Z,9.10
2017-04-11T11:18:07.275Z,9.10
2017-04-11T11:19:14.076Z,9.50
2017-04-11T11:20:20.092Z,10.00
2017-04-11T11:21:26.124Z,9.90
2017-04-11T11:22:32.176Z,10.00
2017-04-11T11:23:38.144Z,10.20
2017-04-11T11:24:44.265Z,10.40
2017-04-11T11:25:51.137Z,9.70
2017-04-11T11:26:57.019Z,9.90
2017-04-11T11:28:03.172Z,9.90
2017-04-11T11:29:09.119Z,10.20
2017-04-11T11:30:15.032Z,10.20
2017-04-11T11:31:20.925Z,10.10
2017-04-11T11:32:27.087Z,9.80
2017-04-11T11:33:33.266Z,9.60
2017-04-11T11:34:39.190Z,9.20
2017-04-11T11:35:45.212Z,9.50
2017-04-11T11:36:51.357Z,9.80
2017-04-11T11:37:57.301Z,9.80
2017-04-11T11:39:06.415Z,9.80
2017-04-11T11:40:22.105Z,10.10
2017-04-11T11:41:28.663Z,10.70
2017-04-11T11:43:46.764Z,11.10
2017-04-11T11:44:53.670Z,11.60
2017-04-11T11:45:59.605Z,11.50
2017-04-11T11:47:05.621Z,11.10
2017-04-11T11:48:11.744Z,10.40
2017-04-11T11:49:18.124Z,9.90
2017-04-11T11:50:24.349Z,9.80
2017-04-11T11:51:30.339Z,9.50
2017-04-11T11:52:36.537Z,9.40
2017-04-11T11:53:42.593Z,9.40
2017-04-11T11:54:48.724Z,9.90
2017-04-11T11:55:55.001Z,10.40
2017-04-11T11:57:00.936Z,10.50
2017-04-11T11:58:07.044Z,10.60
2017-04-11T11:59:13.116Z,10.80
2017-04-11T12:00:19.105Z,10.60
2017-04-11T12:01:25.448Z,11.00
2017-04-11T12:02:31.418Z,11.60
2017-04-11T12:03:37.426Z,12.30
2017-04-11T12:04:43.470Z,13.10
2017-04-11T12:05:50.200Z,13.20
2017-04-11T12:06:56.428Z,12.30
2017-04-11T12:08:02.468Z,11.40
2017-04-11T12:09:08.632Z,11.50
2017-04-11T12:10:15.409Z,11.80
2017-04-11T12:11:21.458Z,11.40
2017-04-11T12:12:27.692Z,10.50
2017-04-11T12:13:34.022Z,10.50
2017-04-11T12:14:40.770Z,10.10
2017-04-11T12:15:46.731Z,10.00
2017-04-11T12:16:52.910Z,10.30
2017-04-11T12:17:58.915Z,10.00
2017-04-11T12:19:04.947Z,9.90
2017-04-11T12:20:11.083Z,9.80
2017-04-11T12:21:17.904Z,9.90
2017-04-11T12:22:23.747Z,10.40
2017-04-11T12:23:30.301Z,10.50
2017-04-11T12:24:36.454Z,10.40
2017-04-11T12:25:42.465Z,10.50
2017-04-11T12:26:48.544Z,10.60
2017-04-11T12:27:54.519Z,11.20
2017-04-11T12:29:00.580Z,11.20
2017-04-11T12:30:07.601Z,11.10
2017-04-11T12:31:13.632Z,10.30
2017-04-11T12:32:19.732Z,10.10
2017-04-11T12:33:25.860Z,10.00
2017-04-11T12:34:32.122Z,9.90
2017-04-11T12:35:38.273Z,9.80
2017-04-11T12:36:44.689Z,9.40
2017-04-11T12:37:50.756Z,9.40
2017-04-11T12:38:56.755Z,9.30
2017-04-11T12:40:02.841Z,10.00
2017-04-11T12:41:09.029Z,10.40
2017-04-11T12:42:14.927Z,10.70
2017-04-11T12:43:21.185Z,11.20
2017-04-11T12:44:27.285Z,11.00
2017-04-11T12:45:33.483Z,10.70
2017-04-11T12:46:41.288Z,10.80
2017-04-11T12:47:47.188Z,11.00
2017-04-11T12:48:53.338Z,11.30
2017-04-11T12:49:59.333Z,11.50
2017-04-11T12:51:05.671Z,11.10
2017-04-11T12:52:11.542Z,10.70
2017-04-11T12:53:17.661Z,10.70
2017-04-11T12:54:23.643Z,10.40
2017-04-11T12:55:29.553Z,10.20
2017-04-11T12:56:35.714Z,9.80
2017-04-11T12:57:41.653Z,10.20
2017-04-11T12:58:47.684Z,10.40
2017-04-11T12:59:53.675Z,10.60
2017-04-11T13:00:59.637Z,10.60
2017-04-11T13:02:06.048Z,10.70
2017-04-11T13:03:12.028Z,10.10
2017-04-11T13:04:18.761Z,10.10
2017-04-11T13:05:24.798Z,10.20
2017-04-11T13:06:30.984Z,10.30
2017-04-11T13:07:36.988Z,10.20
2017-04-11T13:08:43.012Z,10.10
2017-04-11T13:09:49.125Z,9.90
2017-04-11T13:10:55.113Z,10.00
2017-04-11T13:12:01.078Z,10.40
2017-04-11T13:13:07.324Z,10.90
2017-04-11T13:14:13.218Z,11.00
2017-04-11T13:15:19.139Z,11.20
2017-04-11T13:16:25.106Z,11.60
2017-04-11T13:17:31.355Z,11.90
2017-04-11T13:18:37.480Z,11.60
2017-04-11T13:19:43.407Z,11.70
2017-04-11T13:20:49.522Z,11.30
2017-04-11T13:21:55.667Z,11.00
2017-04-11T13:23:01.574Z,11.10
2017-04-11T13:24:07.857Z,10.50
2017-04-11T13:25:15.988Z,10.20
2017-04-11T13:26:22.075Z,10.40
2017-04-11T13:27:28.154Z,10.50
2017-04-11T13:28:34.310Z,10.50
2017-04-11T13:29:40.408Z,10.90
2017-04-11T13:30:46.380Z,10.90
2017-04-11T13:31:52.356Z,10.70
2017-04-11T13:32:58.342Z,10.80
2017-04-11T13:34:04.485Z,10.50
2017-04-11T13:35:10.745Z,10.50
2017-04-11T13:36:16.767Z,10.20
2017-04-11T13:37:22.931Z,10.50
2017-04-11T13:38:28.898Z,10.40
2017-04-11T13:39:34.996Z,10.40
2017-04-11T13:40:41.342Z,10.50
2017-04-11T13:41:47.307Z,10.60
2017-04-11T13:42:53.155Z,11.00
2017-04-11T13:43:59.315Z,11.10
2017-04-11T13:45:05.315Z,11.10
2017-04-11T13:46:11.260Z,11.00
2017-04-11T13:47:17.332Z,11.00
2017-04-11T13:48:23.136Z,10.80
2017-04-11T13:49:30.034Z,10.90
2017-04-11T13:50:36.698Z,10.70
2017-04-11T13:51:42.807Z,10.70
2017-04-11T13:52:48.844Z,10.40
2017-04-11T13:53:54.946Z,10.40
2017-04-11T13:55:00.966Z,10.40
2017-04-11T13:56:07.008Z,10.30
2017-04-11T13:57:12.985Z,10.30
2017-04-11T13:58:18.964Z,10.00
2017-04-11T13:59:25.025Z,9.90
2017-04-11T14:00:30.936Z,9.70
2017-04-11T14:01:37.082Z,9.70
2017-04-11T14:02:43.038Z,9.60
2017-04-11T14:03:48.898Z,9.60
2017-04-11T14:04:54.823Z,9.70
2017-04-11T14:06:00.763Z,9.90
2017-04-11T14:07:06.909Z,9.80
2017-04-11T14:08:13.059Z,9.80
2017-04-11T14:09:18.925Z,9.70
2017-04-11T14:10:24.972Z,9.60
2017-04-11T14:11:30.867Z,9.50
2017-04-11T14:12:36.806Z,9.50
2017-04-11T14:13:43.096Z,9.40
2017-04-11T14:14:49.814Z,9.50
2017-04-11T14:15:55.724Z,9.50
2017-04-11T14:17:01.865Z,9.80
2017-04-11T14:18:07.973Z,9.90
2017-04-11T14:19:14.061Z,9.80
2017-04-11T14:20:20.093Z,9.80
2017-04-11T14:21:26.780Z,9.80
2017-04-11T14:22:32.781Z,9.90
2017-04-11T14:23:38.881Z,9.90
2017-04-11T14:24:45.202Z,9.90
2017-04-11T14:25:51.320Z,9.70
2017-04-11T14:26:57.637Z,9.70
2017-04-11T14:28:03.862Z,9.70
2017-04-11T14:29:09.710Z,9.80
2017-04-11T14:30:15.853Z,9.90
2017-04-11T14:31:21.827Z,10.00
2017-04-11T14:32:27.768Z,10.00
2017-04-11T14:33:33.799Z,9.70
2017-04-11T14:34:39.789Z,10.00
2017-04-11T14:35:45.919Z,10.10
2017-04-11T14:36:52.006Z,10.00
2017-04-11T14:37:58.105Z,10.10
2017-04-11T14:39:04.477Z,10.30
2017-04-11T14:40:10.429Z,10.30
2017-04-11T14:41:16.721Z,10.50
2017-04-11T14:42:23.571Z,10.40
2017-04-11T14:43:29.516Z,10.30